createdAt,value
2019-01-23T00:03:16.777Z,10.33
2019-01-23T00:05:48.979Z,9.30
2019-01-23T00:08:21.292Z,10.63
2019-01-23T00:13:23.897Z,10.50
2019-01-23T00:15:56.258Z,10.80
2019-01-23T00:20:58.926Z,11.30
2019-01-23T00:23:31.285Z,11.80
2019-01-23T00:28:35.376Z,12.68
2019-01-23T00:31:07.724Z,13.23
2019-01-23T00:33:39.767Z,11.47
2019-01-23T00:36:11.965Z,10.05
2019-01-23T00:38:44.137Z,11.63
2019-01-23T00:41:16.295Z,12.40
2019-01-23T00:46:18.940Z,12.70
2019-01-23T00:48:50.968Z,12.33
2019-01-23T00:51:23.319Z,11.80
2019-01-23T00:53:55.792Z,11.90
2019-01-23T00:56:27.963Z,12.88
2019-01-23T00:59:00.302Z,12.63
2019-01-23T01:01:32.649Z,11.25
2019-01-23T01:04:04.716Z,12.23
2019-01-23T01:06:36.771Z,12.27
2019-01-23T01:09:12.277Z,10.88
2019-01-23T01:14:15.292Z,13.10
2019-01-23T01:19:17.900Z,11.38
2019-01-23T01:21:49.964Z,12.15
2019-01-23T01:24:22.291Z,13.20
2019-01-23T01:26:54.299Z,12.00
2019-01-23T01:31:57.260Z,12.20
2019-01-23T01:36:59.965Z,13.00
2019-01-23T01:39:32.273Z,12.27
2019-01-23T01:44:35.131Z,13.25
2019-01-23T01:47:07.370Z,12.03
2019-01-23T01:52:10.117Z,12.95
2019-01-23T01:57:13.294Z,11.55
2019-01-23T02:02:16.292Z,12.07
2019-01-23T02:07:19.384Z,11.93
2019-01-23T02:09:51.349Z,13.10
2019-01-23T02:12:23.712Z,12.95
2019-01-23T02:14:55.962Z,34.83
2019-01-23T02:17:28.362Z,19.40
2019-01-23T02:20:00.502Z,13.80
2019-01-23T02:22:32.768Z,13.07
2019-01-23T02:25:05.295Z,14.10
2019-01-23T02:32:40.744Z,14.53
2019-01-23T02:35:12.962Z,14.10
2019-01-23T02:37:45.122Z,15.88
2019-01-23T02:42:50.679Z,18.60
2019-01-23T02:45:23.774Z,15.58
2019-01-23T02:47:57.332Z,14.87
2019-01-23T02:53:00.286Z,14.07
2019-01-23T02:58:03.134Z,14.68
2019-01-23T03:00:35.304Z,13.60
2019-01-23T03:03:07.889Z,14.15
2019-01-23T03:05:39.958Z,13.60
2019-01-23T03:08:12.284Z,14.33
2019-01-23T03:13:15.267Z,16.23
2019-01-23T03:18:18.192Z,14.73
2019-01-23T03:23:20.962Z,13.88
2019-01-23T03:25:53.049Z,14.73
2019-01-23T03:28:25.279Z,13.90
2019-01-23T03:33:28.291Z,13.32
2019-01-23T03:38:30.923Z,13.93
2019-01-23T03:41:02.966Z,14.03
2019-01-23T03:43:35.284Z,12.82
2019-01-23T04:00:48.372Z,10.90
2019-01-23T04:05:51.153Z,12.43
2019-01-23T04:08:23.276Z,12.37
2019-01-23T04:13:26.262Z,13.13
2019-01-23T04:18:28.933Z,9.65
2019-01-23T04:21:00.963Z,10.50
2019-01-23T04:23:33.025Z,11.75
2019-01-23T04:26:05.154Z,12.53
2019-01-23T04:28:37.297Z,10.70
2019-01-23T04:33:41.332Z,11.97
2019-01-23T04:38:43.946Z,12.00
2019-01-23T04:41:15.962Z,11.20
2019-01-23T04:43:47.962Z,12.23
2019-01-23T04:46:19.960Z,12.80
2019-01-23T04:48:51.949Z,11.38
2019-01-23T04:51:42.886Z,13.13
2019-01-23T04:54:17.538Z,12.80
2019-01-23T04:56:49.743Z,14.07
2019-01-23T04:59:21.956Z,13.43
2019-01-23T05:01:54.104Z,12.58
2019-01-23T05:04:26.131Z,13.93
2019-01-23T05:06:58.337Z,13.90
2019-01-23T05:12:00.909Z,14.40
2019-01-23T05:14:33.140Z,11.65
2019-01-23T05:17:05.266Z,13.37
2019-01-23T05:22:07.755Z,13.07
2019-01-23T05:24:39.897Z,13.58
2019-01-23T05:27:11.958Z,14.37
2019-01-23T05:29:43.999Z,12.23
2019-01-23T05:32:16.114Z,13.40
2019-01-23T05:34:48.085Z,13.75
2019-01-23T05:37:20.283Z,13.80
2019-01-23T05:42:22.940Z,13.93
2019-01-23T05:44:55.124Z,13.85
2019-01-23T05:47:27.270Z,15.13
2019-01-23T05:52:29.960Z,14.03
2019-01-23T05:55:01.958Z,14.63
2019-01-23T05:57:33.961Z,14.10
2019-01-23T06:00:07.896Z,15.75
2019-01-23T06:02:39.938Z,15.40
2019-01-23T06:05:12.341Z,17.32
2019-01-23T06:10:15.284Z,14.30
2019-01-23T06:15:18.278Z,15.48
2019-01-23T06:20:22.303Z,15.75
2019-01-23T06:27:56.330Z,16.73
2019-01-23T06:35:31.268Z,18.60
2019-01-23T06:48:07.700Z,17.20
2019-01-23T06:50:39.949Z,17.03
2019-01-23T06:53:14.135Z,16.17
2019-01-23T06:55:46.277Z,17.02
2019-01-23T07:03:20.320Z,15.53
2019-01-23T07:15:56.295Z,17.60
2019-01-23T07:23:30.290Z,17.57
2019-01-23T07:28:33.288Z,18.17
2019-01-23T07:33:36.297Z,17.42
2019-01-23T07:36:08.283Z,17.30
2019-01-23T07:41:11.362Z,18.00
2019-01-23T07:43:44.346Z,18.00
2019-01-23T07:48:47.688Z,17.75
2019-01-23T07:51:20.099Z,19.13
2019-01-23T07:53:52.280Z,17.73
2019-01-23T07:56:24.330Z,19.20
2019-01-23T07:58:56.345Z,17.37
2019-01-23T08:09:01.290Z,19.25
2019-01-23T08:11:33.342Z,19.65
2019-01-23T08:16:36.673Z,20.47
2019-01-23T08:19:09.282Z,18.57
2019-01-23T08:24:12.660Z,19.57
2019-01-23T08:26:44.942Z,18.62
2019-01-23T08:29:17.336Z,18.35
2019-01-23T08:39:22.317Z,18.55
2019-01-23T08:44:25.256Z,19.32
2019-01-23T08:51:59.560Z,19.60
2019-01-23T08:54:31.853Z,18.67
2019-01-23T08:57:04.280Z,19.37
2019-01-23T09:02:07.590Z,21.27
2019-01-23T09:04:39.942Z,18.67
2019-01-23T09:07:12.282Z,19.23
2019-01-23T09:14:46.639Z,20.37
2019-01-23T09:17:18.952Z,18.77
2019-01-23T09:19:51.267Z,21.05
2019-01-23T09:24:54.554Z,21.97
2019-01-23T09:27:26.790Z,22.05
2019-01-23T09:29:59.278Z,19.90
2019-01-23T09:36:55.321Z,23.33
2019-01-23T09:40:24.545Z,21.80
2019-01-23T09:43:47.947Z,21.52
2019-01-23T09:47:09.945Z,21.25
2019-01-23T09:50:47.872Z,21.95
2019-01-23T09:56:32.668Z,22.13
2019-01-23T09:59:04.901Z,24.30
2019-01-23T10:01:37.289Z,24.63
2019-01-23T10:04:09.400Z,23.80
2019-01-23T10:06:41.673Z,23.65
2019-01-23T10:09:13.765Z,21.97
2019-01-23T10:11:46.276Z,23.70
2019-01-23T10:24:22.298Z,23.95
2019-01-23T10:47:02.287Z,16.77
2019-01-23T10:57:07.638Z,16.25
2019-01-23T10:59:40.771Z,15.80
2019-01-23T11:02:13.215Z,15.08
2019-01-23T11:04:46.278Z,16.10
2019-01-23T11:09:49.310Z,14.87
2019-01-23T11:12:21.636Z,15.20
2019-01-23T11:14:55.268Z,16.23
2019-01-23T11:20:00.299Z,17.30
2019-01-23T11:22:32.387Z,17.40
2019-01-23T11:25:04.675Z,16.03
2019-01-23T11:27:36.886Z,17.62
2019-01-23T11:30:18.925Z,16.17
2019-01-23T11:32:53.278Z,17.30
2019-01-23T11:35:25.661Z,16.30
2019-01-23T11:37:58.278Z,16.20
2019-01-23T11:43:03.273Z,17.32
2019-01-23T11:45:35.088Z,15.70
2019-01-23T11:50:39.118Z,17.85
2019-01-23T11:53:14.910Z,16.45
2019-01-23T11:55:46.944Z,16.85
2019-01-23T11:58:19.276Z,16.30
2019-01-23T12:00:51.353Z,15.53
2019-01-23T12:03:26.116Z,16.73
2019-01-23T12:08:29.520Z,17.57
2019-01-23T12:11:01.895Z,16.70
2019-01-23T12:13:36.271Z,20.80
2019-01-23T12:16:08.324Z,16.90
2019-01-23T12:18:40.680Z,17.40
2019-01-23T12:21:13.107Z,16.30
2019-01-23T12:26:16.278Z,15.70
2019-01-23T12:28:48.507Z,14.00
2019-01-23T12:31:21.272Z,15.50
2019-01-23T12:36:26.281Z,14.23
2019-01-23T12:41:29.278Z,14.80
2019-01-23T12:44:01.308Z,15.98
2019-01-23T12:46:33.319Z,16.32
2019-01-23T12:49:12.701Z,15.05
2019-01-23T12:51:45.094Z,15.30
2019-01-23T12:56:49.186Z,14.60
2019-01-23T12:59:21.317Z,14.63
2019-01-23T13:01:53.654Z,15.60
2019-01-23T13:04:26.111Z,15.20
2019-01-23T13:06:58.291Z,15.40
2019-01-23T13:09:30.182Z,14.67
2019-01-23T13:14:41.527Z,15.80
2019-01-23T13:17:13.927Z,15.83
2019-01-23T13:19:46.333Z,14.00
2019-01-23T13:22:18.626Z,13.97
2019-01-23T13:24:52.686Z,12.73
2019-01-23T13:27:28.967Z,11.97
2019-01-23T13:30:01.345Z,11.75
2019-01-23T13:32:33.687Z,11.83
2019-01-23T13:35:15.806Z,11.80
2019-01-23T13:41:24.876Z,11.43
2019-01-23T13:44:03.358Z,11.28
2019-01-23T13:46:36.315Z,12.00
2019-01-23T13:49:11.443Z,11.18
2019-01-23T13:51:44.303Z,11.60
2019-01-23T13:54:23.582Z,11.30
2019-01-23T13:56:52.101Z,10.13
2019-01-23T13:59:30.741Z,10.97
2019-01-23T14:02:29.668Z,10.63
2019-01-23T14:05:09.972Z,10.53
2019-01-23T14:08:19.395Z,10.18
2019-01-23T14:10:55.444Z,10.10
2019-01-23T14:13:52.362Z,9.98
2019-01-23T14:16:36.762Z,10.65
2019-01-23T14:19:52.251Z,9.18
2019-01-23T14:22:20.382Z,9.85
2019-01-23T14:24:55.324Z,9.58
2019-01-23T14:30:21.073Z,8.90
2019-01-23T14:32:39.997Z,8.00
2019-01-23T14:35:34.313Z,8.57
2019-01-23T14:38:07.317Z,8.48
2019-01-23T14:40:59.864Z,8.25
2019-01-23T14:43:44.397Z,7.92
2019-01-23T14:46:19.330Z,9.60
2019-01-23T14:48:51.910Z,8.33
2019-01-23T14:51:24.419Z,8.10
2019-01-23T14:53:59.979Z,7.53
2019-01-23T14:56:39.290Z,6.93
2019-01-23T14:59:12.318Z,7.00
2019-01-23T15:01:47.353Z,7.70
2019-01-23T15:04:21.367Z,7.67
2019-01-23T15:06:55.285Z,7.05
2019-01-23T15:09:30.111Z,7.67
2019-01-23T15:12:02.297Z,8.50
2019-01-23T15:14:37.899Z,7.75
2019-01-23T15:17:10.669Z,8.23
2019-01-23T15:19:43.334Z,8.37
2019-01-23T15:22:18.866Z,8.90
2019-01-23T15:24:51.429Z,8.83
2019-01-23T15:27:29.807Z,7.80
2019-01-23T15:29:59.313Z,7.95
2019-01-23T15:32:32.096Z,8.23
2019-01-23T15:37:38.305Z,9.15
2019-01-23T15:40:14.706Z,8.78
2019-01-23T15:42:47.518Z,12.50
2019-01-23T15:45:20.292Z,15.40
2019-01-23T15:50:26.962Z,11.22
2019-01-23T15:53:02.126Z,9.80
2019-01-23T16:01:01.121Z,8.50
2019-01-23T16:06:18.962Z,9.00
2019-01-23T16:09:05.456Z,8.00
2019-01-23T16:11:52.298Z,8.03
2019-01-23T16:14:24.563Z,9.48
2019-01-23T16:16:56.913Z,9.60
2019-01-23T16:19:40.426Z,8.73
2019-01-23T16:22:13.014Z,8.80
2019-01-23T16:24:45.891Z,8.57
2019-01-23T16:27:27.368Z,8.58
2019-01-23T16:30:02.306Z,9.35
2019-01-23T16:32:48.288Z,10.10
2019-01-23T16:37:52.300Z,10.20
2019-01-23T16:40:25.291Z,9.78
2019-01-23T16:43:05.776Z,11.85
2019-01-23T16:45:54.321Z,14.83
2019-01-23T16:48:27.309Z,20.97
2019-01-23T16:51:14.019Z,25.75
2019-01-23T16:54:01.484Z,25.55
2019-01-23T16:56:34.447Z,26.67
2019-01-23T16:59:07.647Z,29.20
2019-01-23T17:01:40.284Z,30.10
2019-01-23T17:04:12.820Z,30.40
2019-01-23T17:06:45.339Z,30.07
2019-01-23T17:14:39.325Z,35.68
2019-01-23T17:17:20.835Z,33.33
2019-01-23T17:19:59.034Z,32.15
2019-01-23T17:22:35.946Z,34.13
2019-01-23T17:25:15.663Z,33.55
2019-01-23T17:27:48.290Z,33.53
2019-01-23T17:30:22.652Z,33.10
2019-01-23T17:33:01.305Z,29.63
2019-01-23T17:35:35.313Z,33.58
2019-01-23T17:38:38.133Z,33.40
2019-01-23T17:41:27.950Z,30.48
2019-01-23T17:44:04.287Z,30.90
2019-01-23T17:46:41.684Z,30.65
2019-01-23T17:50:21.535Z,34.43
2019-01-23T17:53:32.335Z,32.28
2019-01-23T17:57:00.379Z,35.95
2019-01-23T18:00:29.753Z,33.63
2019-01-23T18:03:37.874Z,35.00
2019-01-23T18:17:01.596Z,31.77
2019-01-23T18:19:43.324Z,32.47
2019-01-23T18:32:26.336Z,33.33
2019-01-23T18:36:09.794Z,31.60
2019-01-23T18:39:58.326Z,30.37
2019-01-23T18:43:30.611Z,30.02
2019-01-23T18:50:54.745Z,32.25
2019-01-23T18:53:40.626Z,30.85
2019-01-23T19:09:08.860Z,29.87
2019-01-23T19:11:53.680Z,29.77
2019-01-23T19:14:29.512Z,29.23
2019-01-23T19:24:33.561Z,29.72
2019-01-23T19:27:29.867Z,29.20
2019-01-23T19:30:29.628Z,30.05
2019-01-23T19:33:02.402Z,29.77
2019-01-23T19:35:34.709Z,30.73
2019-01-23T19:38:07.278Z,30.93
2019-01-23T19:43:10.282Z,32.07
2019-01-23T19:48:13.442Z,30.10
2019-01-23T19:50:45.725Z,29.77
2019-01-23T19:53:18.283Z,29.55
2019-01-23T20:00:52.236Z,30.45
2019-01-23T20:05:54.939Z,29.57
2019-01-23T20:08:27.116Z,31.40
2019-01-23T20:10:59.275Z,28.50
2019-01-23T20:16:02.271Z,29.90
2019-01-23T20:21:05.092Z,29.23
2019-01-23T20:23:38.287Z,31.10
2019-01-23T20:26:10.247Z,27.80
2019-01-23T20:31:13.136Z,30.25
2019-01-23T20:33:45.272Z,28.27
2019-01-23T20:38:47.944Z,29.72
2019-01-23T20:41:19.947Z,30.48
2019-01-23T20:43:52.770Z,31.17
2019-01-23T20:46:24.948Z,29.02
2019-01-23T20:48:57.229Z,29.37
2019-01-23T20:51:29.144Z,28.70
2019-01-23T20:54:01.282Z,27.47
2019-01-23T20:59:04.273Z,27.47
2019-01-23T21:04:07.221Z,26.93
2019-01-23T21:09:11.730Z,28.63
2019-01-23T21:11:43.897Z,25.60
2019-01-23T21:14:16.032Z,26.20
2019-01-23T21:16:48.276Z,27.17
2019-01-23T21:21:50.930Z,25.68
2019-01-23T21:24:22.937Z,26.60
2019-01-23T21:26:54.990Z,29.00
2019-01-23T21:29:26.943Z,25.70
2019-01-23T21:31:59.256Z,27.87
2019-01-23T21:37:02.244Z,25.70
2019-01-23T21:42:04.921Z,25.80
2019-01-23T21:44:36.946Z,28.03
2019-01-23T21:47:08.952Z,26.60
2019-01-23T21:49:41.105Z,27.20
2019-01-23T21:52:13.265Z,29.35
2019-01-23T21:57:16.274Z,25.55
2019-01-23T22:02:19.265Z,28.92
2019-01-23T22:07:22.278Z,26.02
2019-01-23T22:12:25.282Z,26.35
2019-01-23T22:17:28.269Z,26.67
2019-01-23T22:22:31.274Z,23.97
2019-01-23T22:27:35.316Z,24.92
2019-01-23T22:35:10.666Z,21.60
2019-01-23T22:37:42.863Z,26.27
2019-01-23T22:40:16.174Z,25.70
2019-01-23T22:47:51.878Z,25.80
2019-01-23T22:50:29.644Z,24.93
2019-01-23T22:53:02.659Z,25.90
2019-01-23T22:55:34.749Z,24.98
2019-01-23T22:58:07.802Z,24.75
2019-01-23T23:00:54.944Z,25.35
2019-01-23T23:03:27.255Z,22.32
2019-01-23T23:08:29.894Z,24.25
2019-01-23T23:11:01.935Z,22.80
2019-01-23T23:13:35.581Z,23.15
2019-01-23T23:16:07.943Z,23.80
2019-01-23T23:18:40.108Z,22.63
2019-01-23T23:21:12.279Z,24.57
2019-01-23T23:26:15.080Z,25.43
2019-01-23T23:28:47.252Z,24.70
2019-01-23T23:33:49.945Z,26.15
2019-01-23T23:36:21.951Z,25.05
2019-01-23T23:38:54.072Z,26.35
2019-01-23T23:41:26.274Z,22.30
2019-01-23T23:46:29.274Z,22.05
2019-01-23T23:51:32.128Z,24.80
2019-01-23T23:56:35.079Z,24.60
2019-01-23T23:59:07.317Z,21.73
